Time;durP1;ratioP1;P1;durP2;ratioP2;P2;SDS_P1;SDS_P2;PMS_P1;PMS_P2;Temp;Humidity;BMP_temperature;BMP_pressure;BME280_temperature;BME280_humidity;BME280_pressure;Samples;Min_cycle;Max_cycle;Signal;HPM_P1;HPM_P2
2023/01/01 00:01:12;;;;;;;13.45;9.52;;;;;;;4.45;69.70;96204.09;4971376;28;20485;-69
2023/01/01 00:03:38;;;;;;;15.88;11.07;;;;;;;4.61;69.30;96213.84;4971253;28;20031;-69
2023/01/01 00:06:06;;;;;;;13.82;9.52;;;;;;;4.59;69.15;96221.59;4971560;28;20050;-70
2023/01/01 00:08:31;;;;;;;13.48;8.77;;;;;;;4.54;69.23;96222.66;4955223;28;20039;-70
2023/01/01 00:11:00;;;;;;;12.68;9.20;;;;;;;4.44;69.52;96223.00;4971293;28;20394;-69
2023/01/01 00:13:26;;;;;;;12.32;8.82;;;;;;;4.34;69.65;96213.94;4972357;28;20081;-69
2023/01/01 00:15:51;;;;;;;11.35;8.50;;;;;;;4.33;69.83;96214.00;4972405;28;20031;-69
2023/01/01 00:18:17;;;;;;;12.52;9.50;;;;;;;4.39;69.67;96227.47;4971055;28;20253;-69
2023/01/01 00:20:42;;;;;;;14.55;9.48;;;;;;;4.39;69.20;96212.03;4972316;28;20082;-69
2023/01/01 00:23:08;;;;;;;12.98;9.40;;;;;;;4.18;68.89;96171.63;4970957;28;20026;-69
2023/01/01 00:25:33;;;;;;;11.13;8.27;;;;;;;4.42;68.86;96222.22;4971158;28;20039;-69
2023/01/01 00:27:59;;;;;;;13.40;9.52;;;;;;;4.29;69.36;96225.28;4970957;28;20034;-69
2023/01/01 00:30:24;;;;;;;14.15;10.00;;;;;;;4.31;69.32;96231.22;4970905;28;20575;-69
2023/01/01 00:32:50;;;;;;;25.60;16.75;;;;;;;4.33;69.23;96238.00;4970935;28;20457;-69
2023/01/01 00:35:15;;;;;;;37.60;22.88;;;;;;;4.26;69.38;96246.81;4971756;28;20150;-69
2023/01/01 00:37:40;;;;;;;41.80;26.02;;;;;;;4.07;70.08;96228.63;4970781;28;20050;-69
2023/01/01 00:40:06;;;;;;;41.08;27.10;;;;;;;4.02;70.16;96233.91;4971083;28;20405;-69
2023/01/01 00:42:32;;;;;;;57.67;36.47;;;;;;;4.05;70.07;96245.84;4971033;28;20421;-69
2023/01/01 00:44:57;;;;;;;51.83;31.65;;;;;;;3.83;70.15;96230.31;4972425;28;20043;-69
2023/01/01 00:47:23;;;;;;;49.63;31.55;;;;;;;3.89;70.28;96242.94;4970653;28;20043;-69
2023/01/01 00:49:48;;;;;;;60.60;38.50;;;;;;;3.84;69.79;96239.69;4970783;28;20035;-69
2023/01/01 00:52:14;;;;;;;64.32;41.97;;;;;;;3.89;69.37;96248.09;4970718;28;20041;-69
2023/01/01 00:54:39;;;;;;;66.75;39.80;;;;;;;3.64;70.56;96242.91;4954664;28;20485;-69
2023/01/01 00:57:04;;;;;;;60.67;37.72;;;;;;;3.61;70.88;96248.16;4970503;28;20059;-69
2023/01/01 00:59:30;;;;;;;69.45;38.95;;;;;;;3.51;70.99;96247.63;4954724;28;20042;-69
2023/01/01 01:01:55;;;;;;;53.95;33.45;;;;;;;3.31;70.74;96262.81;4970568;28;20039;-69
2023/01/01 01:04:21;;;;;;;65.30;40.70;;;;;;;2.88;71.84;96253.88;4972035;28;20379;-69
2023/01/01 01:06:46;;;;;;;60.28;34.88;;;;;;;2.94;71.90;96245.97;4971800;28;20442;-69
2023/01/01 01:09:12;;;;;;;61.60;34.38;;;;;;;3.10;71.29;96246.38;4971962;28;20031;-69
2023/01/01 01:11:37;;;;;;;50.42;30.90;;;;;;;3.09;71.60;96240.41;4971724;28;20094;-69
2023/01/01 01:14:02;;;;;;;55.38;34.40;;;;;;;3.05;71.50;96245.66;4971918;28;20030;-69
2023/01/01 01:16:31;;;;;;;52.88;32.67;;;;;;;3.07;70.65;96242.16;4970566;28;20042;-69
2023/01/01 01:18:59;;;;;;;49.42;28.23;;;;;;;2.98;70.88;96236.44;4954548;28;20046;-69
2023/01/01 01:21:25;;;;;;;48.42;28.25;;;;;;;2.94;70.92;96235.72;4954327;28;20121;-69
2023/01/01 01:23:50;;;;;;;44.90;28.55;;;;;;;2.96;70.99;96227.97;4970315;28;20114;-70
2023/01/01 01:26:21;;;;;;;47.78;30.05;;;;;;;2.83;71.51;96235.19;4970450;28;20034;-70
2023/01/01 01:28:47;;;;;;;44.50;28.02;;;;;;;2.77;71.84;96227.69;4971727;28;20062;-69
2023/01/01 01:31:12;;;;;;;44.72;26.00;;;;;;;2.71;71.90;96215.88;4954348;28;20134;-69
2023/01/01 01:33:38;;;;;;;33.80;18.98;;;;;;;2.71;72.18;96228.69;4954298;28;20027;-69
2023/01/01 01:36:04;;;;;;;25.08;14.45;;;;;;;2.74;73.49;96230.34;4954216;28;20066;-70
2023/01/01 01:38:29;;;;;;;19.48;12.38;;;;;;;2.80;73.48;96228.41;4970254;28;20034;-69
2023/01/01 01:40:54;;;;;;;20.08;11.95;;;;;;;2.70;74.15;96219.31;4971541;28;20031;-69
2023/01/01 01:43:40;;;;;;;27.23;16.25;;;;;;;2.79;74.85;96228.47;4970215;28;20031;-69
2023/01/01 01:46:13;;;;;;;41.00;21.90;;;;;;;2.60;75.44;96221.31;4964371;28;20585;-69
2023/01/01 01:48:41;;;;;;;46.78;26.42;;;;;;;2.74;75.11;96241.44;4973703;28;20023;-69
2023/01/01 01:51:06;;;;;;;48.42;29.75;;;;;;;2.92;73.37;96232.34;4957877;28;20034;-69
2023/01/01 01:53:34;;;;;;;47.40;27.08;;;;;;;2.98;73.43;96247.59;4957499;28;20023;-69
2023/01/01 01:56:01;;;;;;;44.75;27.33;;;;;;;2.90;73.90;96231.56;4973683;28;20035;-69
2023/01/01 01:58:27;;;;;;;42.05;24.85;;;;;;;3.05;73.68;96237.97;4973516;28;20121;-69
2023/01/01 02:00:52;;;;;;;42.80;26.85;;;;;;;2.94;72.92;96224.59;4973399;28;20037;-70
2023/01/01 02:03:20;;;;;;;46.70;27.35;;;;;;;2.97;73.20;96233.03;4957354;28;20054;-69
2023/01/01 02:05:46;;;;;;;42.25;26.15;;;;;;;2.75;73.34;96239.72;4957635;28;20049;-69
2023/01/01 02:08:13;;;;;;;53.17;32.80;;;;;;;2.66;73.49;96233.97;4973240;28;20035;-69
2023/01/01 02:10:38;;;;;;;51.17;30.60;;;;;;;2.69;73.57;96241.56;4941704;28;20505;-69
2023/01/01 02:13:04;;;;;;;47.28;27.50;;;;;;;2.53;74.91;96242.88;4973568;28;20023;-69
2023/01/01 02:15:32;;;;;;;51.28;29.67;;;;;;;2.51;75.40;96249.81;4973484;28;20394;-69
2023/01/01 02:18:11;;;;;;;50.00;26.95;;;;;;;2.46;76.98;96241.41;4941395;28;20042;-69
2023/01/01 02:20:45;;;;;;;53.35;27.23;;;;;;;2.48;76.61;96239.63;4958386;28;20039;-69
2023/01/01 02:23:21;;;;;;;45.45;27.20;;;;;;;2.55;75.95;96253.97;4957565;28;20122;-69
2023/01/01 02:26:10;;;;;;;41.47;25.20;;;;;;;2.62;75.49;96250.34;4973150;28;20038;-69
2023/01/01 02:29:01;;;;;;;37.28;22.40;;;;;;;2.58;75.30;96253.88;4955298;28;20042;-69
2023/01/01 02:31:30;;;;;;;32.97;21.58;;;;;;;2.41;75.06;96230.44;4973063;28;20039;-69
2023/01/01 02:33:58;;;;;;;29.80;19.50;;;;;;;2.59;74.16;96265.84;4972925;28;20035;-69
2023/01/01 02:36:24;;;;;;;29.58;17.98;;;;;;;2.54;74.54;96259.16;4956904;28;20035;-69
2023/01/01 02:38:51;;;;;;;29.42;16.70;;;;;;;2.63;73.93;96256.31;4972852;28;20097;-69
2023/01/01 02:41:22;;;;;;;29.45;18.30;;;;;;;2.60;73.31;96257.25;4972717;28;20052;-69
2023/01/01 02:43:47;;;;;;;31.50;18.27;;;;;;;2.59;74.54;96250.44;4956950;28;20030;-69
2023/01/01 02:46:13;;;;;;;30.92;17.67;;;;;;;2.57;73.52;96246.22;4973971;28;20097;-69
2023/01/01 02:48:42;;;;;;;27.70;16.65;;;;;;;2.56;73.63;96245.38;4956591;28;20038;-69
2023/01/01 02:51:22;;;;;;;34.25;20.35;;;;;;;2.40;73.78;96244.16;4972730;28;20030;-69
2023/01/01 02:53:57;;;;;;;37.80;23.13;;;;;;;2.45;74.34;96248.25;4957529;28;20066;-69
2023/01/01 02:56:46;;;;;;;36.00;20.48;;;;;;;2.41;74.42;96246.66;4972529;28;20089;-69
2023/01/01 03:02:35;;;;;;;40.35;22.60;;;;;;;2.39;75.30;96239.88;4972537;28;20042;-69
2023/01/01 03:05:09;;;;;;;21.75;13.25;;;;;;;2.31;75.54;96231.56;4968911;28;20066;-69
2023/01/01 03:07:39;;;;;;;25.67;15.73;;;;;;;2.24;75.62;96233.47;4956167;28;20421;-69
2023/01/01 03:10:36;;;;;;;18.85;11.77;;;;;;;2.23;76.24;96230.06;4973955;28;20034;-69
2023/01/01 03:13:19;;;;;;;18.73;11.35;;;;;;;2.08;76.72;96204.00;4957329;28;20035;-69
2023/01/01 03:16:15;;;;;;;20.80;11.38;;;;;;;2.32;76.56;96233.25;4957324;28;20031;-69
2023/01/01 03:18:46;;;;;;;33.22;19.95;;;;;;;2.42;76.12;96238.09;4973384;28;20042;-69
2023/01/01 03:21:12;;;;;;;43.53;25.08;;;;;;;2.49;76.95;96238.75;4971931;28;20027;-69
2023/01/01 03:23:41;;;;;;;41.42;23.85;;;;;;;2.52;76.94;96243.78;4955879;28;20034;-69
2023/01/01 03:26:08;;;;;;;40.95;24.67;;;;;;;2.69;76.50;96246.69;4956141;28;20031;-69
2023/01/01 03:28:35;;;;;;;37.97;23.98;;;;;;;2.78;75.76;96252.44;4955968;28;20406;-69
2023/01/01 03:31:01;;;;;;;37.92;22.55;;;;;;;2.75;75.25;96229.44;4955945;28;20494;-69
2023/01/01 03:33:33;;;;;;;25.25;15.57;;;;;;;2.81;74.81;96234.38;4973033;28;20039;-69
2023/01/01 03:36:06;;;;;;;17.67;11.95;;;;;;;2.85;74.06;96231.69;4956406;28;20045;-69
2023/01/01 03:38:51;;;;;;;18.40;12.18;;;;;;;2.84;73.32;96224.91;4971720;28;20061;-69
2023/01/01 03:41:35;;;;;;;26.60;14.93;;;;;;;2.75;72.71;96237.16;4971689;28;20105;-69
2023/01/01 03:44:22;;;;;;;25.00;16.65;;;;;;;2.64;72.85;96233.16;4971773;28;20027;-69
2023/01/01 03:46:47;;;;;;;28.95;17.15;;;;;;;2.63;73.23;96241.75;4972815;28;20041;-69
2023/01/01 03:49:13;;;;;;;27.40;15.77;;;;;;;2.57;72.67;96239.38;4971566;28;20027;-69
2023/01/01 03:52:17;;;;;;;26.65;14.75;;;;;;;2.55;72.61;96238.56;4972683;28;20528;-69
2023/01/01 03:55:05;;;;;;;26.60;13.40;;;;;;;2.47;72.50;96243.91;4973171;28;20034;-69
2023/01/01 03:57:36;;;;;;;28.90;16.27;;;;;;;2.33;72.69;96242.63;4971281;28;20055;-69
2023/01/01 04:00:04;;;;;;;24.03;15.30;;;;;;;2.29;72.66;96246.16;4955528;28;20113;-69
2023/01/01 04:02:33;;;;;;;26.52;15.32;;;;;;;2.21;72.03;96239.50;4972437;28;20117;-69
2023/01/01 04:04:59;;;;;;;27.65;14.98;;;;;;;2.24;72.62;96243.72;4955715;28;20039;-69
2023/01/01 04:07:24;;;;;;;21.35;12.82;;;;;;;2.22;72.47;96253.16;4955074;28;20031;-69
2023/01/01 04:09:53;;;;;;;21.23;12.35;;;;;;;2.09;72.95;96239.84;4923998;29;20051;-69
2023/01/01 04:12:20;;;;;;;20.38;12.05;;;;;;;2.07;72.40;96233.91;4949555;28;20118;-69
2023/01/01 04:14:46;;;;;;;26.17;15.15;;;;;;;2.13;72.32;96243.16;4968162;28;20027;-71
2023/01/01 04:17:11;;;;;;;27.42;15.70;;;;;;;2.03;72.00;96229.75;4956455;28;20490;-72
2023/01/01 04:19:37;;;;;;;27.35;16.25;;;;;;;2.04;72.68;96236.56;4949977;28;20390;-70
2023/01/01 04:22:02;;;;;;;28.85;17.67;;;;;;;1.94;72.31;96246.22;4970966;28;20158;-69
2023/01/01 04:24:28;;;;;;;32.47;20.75;;;;;;;1.71;73.60;96249.38;4965308;28;20034;-69
2023/01/01 04:26:54;;;;;;;53.47;29.48;;;;;;;1.40;76.65;96240.78;4935762;29;20596;-69
2023/01/01 04:29:19;;;;;;;55.35;30.63;;;;;;;1.38;78.15;96250.19;4946015;28;20035;-69
2023/01/01 04:31:45;;;;;;;58.58;32.55;;;;;;;1.40;78.62;96254.41;4968207;28;20035;-69
2023/01/01 04:34:10;;;;;;;59.47;31.50;;;;;;;1.61;78.77;96257.31;4967249;28;20039;-69
2023/01/01 04:36:36;;;;;;;59.85;32.55;;;;;;;1.59;78.42;96254.81;4966678;28;20035;-69
2023/01/01 04:39:01;;;;;;;49.55;29.88;;;;;;;1.73;78.19;96270.69;4963110;28;20039;-69
2023/01/01 04:41:27;;;;;;;49.55;29.38;;;;;;;1.78;77.55;96273.97;4967150;28;20875;-69
2023/01/01 04:43:52;;;;;;;51.92;28.27;;;;;;;1.88;76.07;96276.28;4967689;28;20489;-69
2023/01/01 04:46:19;;;;;;;51.33;28.73;;;;;;;1.83;76.07;96262.75;4968447;28;20517;-69
2023/01/01 04:48:44;;;;;;;38.53;21.75;;;;;;;1.76;75.38;96262.06;4966654;28;20473;-69
2023/01/01 04:51:10;;;;;;;29.25;17.60;;;;;;;1.63;76.35;96261.53;4949585;28;20047;-69
2023/01/01 04:53:36;;;;;;;33.72;20.08;;;;;;;1.54;76.61;96269.44;4951133;28;20027;-69
2023/01/01 04:56:05;;;;;;;28.67;16.02;;;;;;;1.63;75.98;96253.84;4966554;28;20549;-69
2023/01/01 04:58:32;;;;;;;34.80;19.80;;;;;;;1.59;75.80;96262.50;4966275;28;20064;-69
2023/01/01 05:00:57;;;;;;;29.95;18.30;;;;;;;1.56;75.58;96260.84;4967396;28;20061;-70
2023/01/01 05:03:22;;;;;;;36.40;20.50;;;;;;;1.53;75.53;96242.13;4967724;28;20497;-69
2023/01/01 05:06:00;;;;;;;39.80;21.23;;;;;;;1.54;76.08;96264.31;4966834;28;20561;-69
2023/01/01 05:08:30;;;;;;;31.95;19.38;;;;;;;1.43;75.30;96243.25;4967524;28;20418;-69
2023/01/01 05:11:09;;;;;;;35.30;19.63;;;;;;;1.61;74.72;96262.44;4966641;28;20047;-69
2023/01/01 05:13:38;;;;;;;32.42;18.08;;;;;;;1.51;74.82;96256.72;4965134;28;20039;-68
2023/01/01 05:16:07;;;;;;;33.45;18.35;;;;;;;1.47;74.60;96248.25;4949042;28;20043;-68
2023/01/01 05:18:33;;;;;;;32.13;18.83;;;;;;;1.38;75.07;96240.78;4966643;28;20485;-68
2023/01/01 05:21:19;;;;;;;44.63;22.83;;;;;;;1.52;74.87;96256.66;4966051;28;20086;-68
2023/01/01 05:23:44;;;;;;;42.47;24.88;;;;;;;1.45;75.10;96247.47;4953979;28;20039;-68
2023/01/01 05:26:17;;;;;;;44.88;26.70;;;;;;;1.49;74.99;96254.19;4972232;28;20050;-68
2023/01/01 05:28:42;;;;;;;52.55;28.17;;;;;;;1.42;76.85;96256.91;4973522;28;20109;-68
2023/01/01 05:31:12;;;;;;;59.53;31.60;;;;;;;1.49;76.91;96261.88;4974190;28;20470;-68
2023/01/01 05:33:37;;;;;;;65.10;33.35;;;;;;;1.35;78.69;96266.47;4974322;28;20027;-68
2023/01/01 05:36:04;;;;;;;55.58;30.80;;;;;;;1.30;78.70;96264.00;4974148;28;20484;-68
2023/01/01 05:38:29;;;;;;;52.40;29.55;;;;;;;1.54;77.87;96264.31;4973538;28;20034;-68
2023/01/01 05:40:55;;;;;;;49.72;28.90;;;;;;;1.53;77.98;96270.31;4973956;28;20528;-68
2023/01/01 05:43:20;;;;;;;47.13;25.83;;;;;;;1.46;77.76;96267.06;4971914;28;20492;-68
2023/01/01 05:45:46;;;;;;;32.88;18.27;;;;;;;1.53;77.59;96281.41;4973663;28;20504;-68
2023/01/01 05:48:11;;;;;;;36.63;20.15;;;;;;;1.45;77.04;96264.53;4961387;28;20067;-68
2023/01/01 05:50:36;;;;;;;32.90;19.17;;;;;;;1.54;76.43;96280.53;4965201;28;20042;-68
2023/01/01 05:53:02;;;;;;;34.13;19.55;;;;;;;1.49;76.90;96276.41;4972779;28;20493;-68
2023/01/01 05:55:27;;;;;;;32.20;19.02;;;;;;;1.54;76.52;96272.84;4962423;28;20490;-68
2023/01/01 05:57:53;;;;;;;25.70;14.88;;;;;;;1.49;76.56;96264.44;4954196;28;20062;-68
2023/01/01 06:00:18;;;;;;;28.92;16.38;;;;;;;1.58;76.17;96268.47;4971340;28;20031;-68
2023/01/01 06:02:44;;;;;;;23.83;13.07;;;;;;;1.55;75.62;96274.53;4954167;29;20522;-69
2023/01/01 06:05:09;;;;;;;28.92;16.05;;;;;;;1.59;75.25;96275.31;4965856;28;20042;-68
2023/01/01 06:07:35;;;;;;;31.90;18.55;;;;;;;1.32;75.51;96287.88;4971475;28;20035;-69
2023/01/01 06:10:00;;;;;;;36.72;18.77;;;;;;;1.34;75.91;96281.00;4989780;28;20038;-68
2023/01/01 06:12:26;;;;;;;33.08;18.77;;;;;;;1.36;76.33;96283.53;4972828;28;20041;-68
2023/01/01 06:14:51;;;;;;;36.30;20.85;;;;;;;1.39;76.25;96273.19;4954140;28;20035;-69
2023/01/01 06:17:16;;;;;;;43.38;24.38;;;;;;;1.26;76.18;96261.59;4955123;28;20038;-68
2023/01/01 06:19:42;;;;;;;42.53;24.70;;;;;;;1.29;76.27;96261.50;4955082;28;20487;-69
2023/01/01 06:22:07;;;;;;;47.78;24.42;;;;;;;1.30;75.79;96263.19;4954656;28;20559;-69
2023/01/01 06:24:33;;;;;;;46.15;27.13;;;;;;;1.45;75.53;96277.34;4953832;29;20457;-68
2023/01/01 06:26:58;;;;;;;47.25;27.17;;;;;;;1.44;75.33;96275.66;4955037;28;20028;-68
2023/01/01 06:29:24;;;;;;;35.35;21.63;;;;;;;1.51;75.48;96287.47;4955127;28;20039;-69
2023/01/01 06:31:49;;;;;;;38.97;21.30;;;;;;;1.52;75.39;96289.13;4954882;28;20024;-68
2023/01/01 06:34:14;;;;;;;45.95;25.08;;;;;;;1.45;76.25;96288.44;4955068;28;20027;-68
2023/01/01 06:36:40;;;;;;;37.15;22.27;;;;;;;1.52;75.72;96294.25;4974174;28;20245;-68
2023/01/01 06:39:05;;;;;;;39.78;21.38;;;;;;;1.52;75.71;96300.22;4989167;28;20034;-68
2023/01/01 06:41:31;;;;;;;37.28;20.50;;;;;;;1.54;75.61;96302.75;4972038;28;20081;-69
2023/01/01 06:43:57;;;;;;;36.53;18.17;;;;;;;1.68;75.34;96298.13;4972187;28;20031;-68
2023/01/01 06:46:28;;;;;;;26.27;15.45;;;;;;;1.59;75.92;96290.69;4972710;28;20512;-69
2023/01/01 06:48:55;;;;;;;27.30;15.57;;;;;;;1.66;75.96;96312.69;4988478;28;20026;-69
2023/01/01 06:51:25;;;;;;;36.40;18.02;;;;;;;1.74;75.73;96317.63;4968699;28;20035;-68
2023/01/01 06:53:50;;;;;;;30.75;18.10;;;;;;;1.74;75.62;96322.75;4954601;28;20500;-69
2023/01/01 06:56:16;;;;;;;36.70;21.38;;;;;;;1.75;76.22;96327.84;4937216;29;20035;-69
2023/01/01 06:58:42;;;;;;;37.17;21.90;;;;;;;1.81;76.14;96328.56;4955341;28;20066;-68
2023/01/01 07:01:11;;;;;;;40.13;23.85;;;;;;;1.83;75.97;96322.53;4971805;28;20421;-68
2023/01/01 07:03:37;;;;;;;42.67;23.38;;;;;;;1.90;75.80;96330.94;4988014;28;20050;-68
2023/01/01 07:06:03;;;;;;;30.65;18.00;;;;;;;1.93;75.88;96320.59;4972404;28;20509;-69
2023/01/01 07:08:29;;;;;;;33.63;18.15;;;;;;;1.85;76.54;96322.50;4973480;28;20081;-68
2023/01/01 07:10:56;;;;;;;31.58;18.40;;;;;;;1.94;76.19;96332.53;4972391;28;20030;-68
2023/01/01 07:13:23;;;;;;;29.90;17.35;;;;;;;1.93;76.41;96324.00;4955723;28;20412;-68
2023/01/01 07:15:48;;;;;;;29.75;17.90;;;;;;;1.92;75.89;96327.44;4955252;28;20564;-69
2023/01/01 07:18:14;;;;;;;34.20;19.60;;;;;;;1.99;76.68;96331.53;4953668;28;20046;-68
2023/01/01 07:20:39;;;;;;;41.65;22.15;;;;;;;1.99;76.79;96326.41;4954068;28;20036;-68
2023/01/01 07:23:05;;;;;;;36.97;20.80;;;;;;;2.08;76.83;96338.13;4959718;28;20559;-68
2023/01/01 07:25:30;;;;;;;39.20;20.45;;;;;;;2.17;76.90;96340.50;4972162;28;20464;-68
2023/01/01 07:27:55;;;;;;;31.73;17.63;;;;;;;2.10;77.00;96322.72;4964930;28;20091;-68
2023/01/01 07:30:21;;;;;;;25.33;15.95;;;;;;;2.15;76.90;96321.72;4954013;28;20027;-68
2023/01/01 07:32:46;;;;;;;27.95;17.25;;;;;;;2.13;75.99;96317.53;4952587;29;20039;-68
2023/01/01 07:35:12;;;;;;;37.40;19.58;;;;;;;2.18;76.10;96315.69;4954207;28;20031;-68
2023/01/01 07:37:37;;;;;;;35.20;19.52;;;;;;;2.29;76.33;96318.81;4964204;28;20509;-69
2023/01/01 07:40:03;;;;;;;39.25;22.67;;;;;;;2.32;76.08;96317.88;4952787;28;20098;-69
2023/01/01 07:42:29;;;;;;;44.88;24.50;;;;;;;2.34;76.24;96322.09;4952360;28;20035;-68
2023/01/01 07:44:54;;;;;;;35.08;19.38;;;;;;;2.29;76.33;96313.69;4986235;28;20030;-68
2023/01/01 07:47:22;;;;;;;32.67;18.52;;;;;;;2.40;76.04;96315.97;4971603;28;20046;-68
2023/01/01 07:49:48;;;;;;;31.95;18.13;;;;;;;2.36;76.21;96307.50;4971719;28;20037;-68
2023/01/01 07:52:14;;;;;;;32.92;19.55;;;;;;;2.57;76.30;96324.03;4971202;28;20031;-68
2023/01/01 07:54:39;;;;;;;28.20;17.60;;;;;;;2.67;76.21;96327.19;4971718;28;20026;-68
2023/01/01 07:57:04;;;;;;;28.35;15.57;;;;;;;2.73;76.26;96326.16;4987451;28;20500;-68
2023/01/01 07:59:30;;;;;;;24.10;13.80;;;;;;;2.80;76.51;96330.25;4970503;28;20030;-68
2023/01/01 08:01:56;;;;;;;21.10;13.90;;;;;;;2.86;76.36;96324.94;4987439;28;20476;-69
2023/01/01 08:04:21;;;;;;;25.52;16.23;;;;;;;2.97;76.10;96317.78;4987393;28;20485;-68
2023/01/01 08:06:47;;;;;;;27.45;15.85;;;;;;;3.12;76.37;96327.59;4986707;28;20429;-68
2023/01/01 08:09:12;;;;;;;40.38;22.73;;;;;;;3.25;76.32;96320.34;4971367;28;20030;-69
2023/01/01 08:11:38;;;;;;;35.50;20.50;;;;;;;3.42;76.25;96319.00;4972680;28;20043;-68
2023/01/01 08:14:03;;;;;;;46.55;25.83;;;;;;;3.55;75.94;96328.88;4987079;28;20496;-69
2023/01/01 08:16:28;;;;;;;53.70;30.35;;;;;;;3.62;76.02;96328.66;4972385;28;20470;-69
2023/01/01 08:18:54;;;;;;;79.35;43.08;;;;;;;3.76;76.01;96334.19;4987231;28;20433;-69
2023/01/01 08:21:19;;;;;;;85.25;47.92;;;;;;;3.67;77.22;96330.19;4971070;28;20561;-69
2023/01/01 08:23:45;;;;;;;85.97;46.70;;;;;;;3.77;77.17;96316.19;4986668;28;20473;-69
2023/01/01 08:26:15;;;;;;;87.07;46.67;;;;;;;4.01;76.84;96340.25;4970946;28;20540;-68
2023/01/01 08:28:40;;;;;;;81.68;44.17;;;;;;;4.05;76.78;96329.88;4967033;28;20498;-69
2023/01/01 08:31:06;;;;;;;74.75;43.92;;;;;;;4.36;75.85;96338.22;4942959;28;20086;-68
2023/01/01 08:33:31;;;;;;;74.55;42.17;;;;;;;4.46;75.58;96324.16;4965054;28;20067;-69
2023/01/01 08:35:57;;;;;;;72.03;41.97;;;;;;;4.65;75.25;96332.09;4965566;28;20041;-68
2023/01/01 08:38:22;;;;;;;71.00;40.20;;;;;;;4.89;74.10;96335.50;4967073;28;20094;-69
2023/01/01 08:40:48;;;;;;;61.22;37.80;;;;;;;4.96;74.17;96341.28;4965590;28;20098;-68
2023/01/01 08:43:13;;;;;;;68.30;37.88;;;;;;;5.09;73.56;96345.06;4963414;28;20035;-69
2023/01/01 08:45:39;;;;;;;56.35;35.30;;;;;;;5.03;72.80;96322.13;4964466;28;20038;-69
2023/01/01 08:48:04;;;;;;;61.28;36.10;;;;;;;5.26;72.36;96336.69;4967803;28;20500;-69
2023/01/01 08:50:30;;;;;;;57.05;35.03;;;;;;;5.31;72.00;96331.38;4966942;28;20126;-69
2023/01/01 08:52:57;;;;;;;53.92;32.90;;;;;;;5.58;70.60;96332.06;4967211;28;20041;-69
2023/01/01 08:55:22;;;;;;;50.08;31.55;;;;;;;5.60;70.79;96327.72;4963013;28;20375;-69
2023/01/01 08:57:48;;;;;;;55.65;33.10;;;;;;;5.57;70.96;96322.63;4969661;28;20057;-69
2023/01/01 09:00:14;;;;;;;54.17;33.53;;;;;;;5.67;71.39;96336.03;4969926;28;20409;-69
2023/01/01 09:02:39;;;;;;;54.08;32.72;;;;;;;5.81;70.90;96326.84;4971816;28;20117;-69
2023/01/01 09:05:05;;;;;;;51.15;31.98;;;;;;;5.81;70.34;96326.84;4969080;28;20382;-69
2023/01/01 09:07:31;;;;;;;86.38;41.60;;;;;;;5.79;70.46;96328.66;4972517;28;20035;-68
2023/01/01 09:09:56;;;;;;;83.70;40.85;;;;;;;5.97;69.60;96319.34;4968240;28;20527;-68
2023/01/01 09:12:22;;;;;;;63.53;35.65;;;;;;;5.90;70.13;96314.47;4957582;28;20050;-69
2023/01/01 09:14:47;;;;;;;66.10;37.00;;;;;;;5.93;70.48;96314.34;4953725;28;20026;-69
2023/01/01 09:17:13;;;;;;;81.03;44.13;;;;;;;5.84;70.49;96312.97;4967813;28;20057;-68
2023/01/01 09:19:38;;;;;;;51.63;32.53;;;;;;;5.64;70.68;96313.78;4969152;28;20162;-69
2023/01/01 09:22:08;;;;;;;59.78;35.72;;;;;;;5.55;70.90;96267.75;4966108;28;20047;-68
2023/01/01 09:24:33;;;;;;;56.13;34.97;;;;;;;6.09;69.81;96301.69;4968775;28;20046;-68
2023/01/01 09:26:59;;;;;;;54.53;32.63;;;;;;;5.99;70.17;96298.63;4984977;28;20031;-69
2023/01/01 09:29:24;;;;;;;52.60;32.95;;;;;;;6.25;69.88;96285.50;4965239;28;20027;-68
2023/01/01 09:31:50;;;;;;;61.05;35.88;;;;;;;6.21;69.71;96273.66;4967586;28;20039;-68
2023/01/01 09:34:18;;;;;;;57.40;33.55;;;;;;;6.20;69.70;96282.28;4969135;28;20019;-69
2023/01/01 09:36:44;;;;;;;53.78;34.22;;;;;;;6.37;69.51;96283.31;4967894;28;20035;-69
2023/01/01 09:39:14;;;;;;;60.42;34.13;;;;;;;6.25;69.29;96285.50;4953758;28;20468;-69
2023/01/01 09:41:51;;;;;;;55.53;33.45;;;;;;;6.37;68.90;96280.72;4967283;28;20038;-69
2023/01/01 09:44:23;;;;;;;68.85;38.40;;;;;;;6.35;69.14;96279.94;4965084;28;20110;-70
2023/01/01 09:46:50;;;;;;;58.60;35.38;;;;;;;6.63;68.62;96279.56;4968218;28;20114;-70
2023/01/01 09:49:19;;;;;;;67.20;35.72;;;;;;;6.55;68.45;96268.78;4968865;28;20029;-70
2023/01/01 09:51:45;;;;;;;64.45;35.80;;;;;;;6.63;68.50;96277.84;4967518;28;20047;-70
2023/01/01 09:54:39;;;;;;;63.75;34.90;;;;;;;6.93;67.77;96272.22;4970262;28;20034;-71
2023/01/01 09:57:07;;;;;;;67.13;33.97;;;;;;;7.10;66.82;96254.22;4971150;28;20066;-70
2023/01/01 09:59:33;;;;;;;66.80;36.47;;;;;;;7.27;65.61;96257.72;4954420;28;20034;-72
2023/01/01 10:02:19;;;;;;;63.85;35.83;;;;;;;7.41;65.87;96265.72;4953717;28;20520;-72
2023/01/01 10:05:22;;;;;;;45.35;27.08;;;;;;;7.28;66.62;96262.84;4967990;28;20443;-74
2023/01/01 10:07:50;;;;;;;51.30;33.05;;;;;;;7.43;66.32;96263.84;4969809;28;20425;-72
2023/01/01 10:10:39;;;;;;;52.95;32.25;;;;;;;7.54;66.79;96256.44;4953228;28;20031;-73
2023/01/01 10:13:39;;;;;;;49.60;30.70;;;;;;;7.50;66.29;96267.00;4966664;28;20027;-73
2023/01/01 10:16:31;;;;;;;48.58;29.85;;;;;;;7.69;66.21;96260.03;4954090;28;20066;-70
2023/01/01 10:18:57;;;;;;;;;;;;;;;7.85;65.80;96257.53;4969048;28;20019;-70
2023/01/01 10:21:25;;;;;;;48.30;28.65;;;;;;;7.91;65.00;96252.06;4970120;28;19922;-70
2023/01/01 10:23:54;;;;;;;51.58;32.85;;;;;;;7.95;64.83;96243.22;4953211;28;20640;-70
2023/01/01 10:26:23;;;;;;;42.85;27.35;;;;;;;8.02;64.27;96243.75;4964814;28;20042;-72
2023/01/01 10:29:00;;;;;;;44.42;27.95;;;;;;;8.15;63.90;96249.16;4968739;28;20027;-72
2023/01/01 10:31:40;;;;;;;43.88;28.27;;;;;;;8.19;63.89;96237.72;4968682;28;20065;-72
2023/01/01 10:34:19;;;;;;;45.70;31.27;;;;;;;8.24;63.82;96238.34;4952867;28;20514;-72
2023/01/01 10:36:44;;;;;;;45.55;28.83;;;;;;;8.40;63.29;96241.84;4933815;28;20049;-72
2023/01/01 10:39:16;;;;;;;43.97;26.65;;;;;;;8.40;63.26;96231.47;4970518;28;21016;-72
2023/01/01 10:41:45;;;;;;;36.15;22.83;;;;;;;8.57;62.52;96234.97;4968938;28;20122;-72
2023/01/01 10:44:11;;;;;;;35.67;23.67;;;;;;;8.63;62.64;96242.41;4965491;28;20086;-72
2023/01/01 10:46:38;;;;;;;37.75;24.20;;;;;;;8.77;62.64;96228.72;4967136;28;20034;-72
2023/01/01 10:49:10;;;;;;;36.92;23.73;;;;;;;8.72;62.82;96213.44;4969466;28;20501;-72
2023/01/01 10:51:37;;;;;;;40.08;24.42;;;;;;;8.83;63.03;96220.63;4968660;28;20035;-72
2023/01/01 10:54:03;;;;;;;39.53;26.70;;;;;;;8.90;62.26;96202.06;4968430;28;20038;-72
2023/01/01 10:56:38;;;;;;;37.17;25.45;;;;;;;8.97;62.29;96199.13;4951796;28;20108;-73
2023/01/01 10:59:03;;;;;;;37.97;24.08;;;;;;;9.08;61.96;96196.78;4952784;28;20055;-72
2023/01/01 11:01:30;;;;;;;37.42;24.48;;;;;;;9.08;61.80;96196.78;4969737;28;20058;-72
2023/01/01 11:04:03;;;;;;;35.35;23.33;;;;;;;9.19;61.71;96186.66;4967797;28;20038;-72
2023/01/01 11:06:47;;;;;;;32.95;21.50;;;;;;;9.11;61.81;96170.69;4966979;28;20433;-72
2023/01/01 11:09:20;;;;;;;34.33;22.05;;;;;;;9.36;61.85;96189.16;4937979;28;20031;-72
2023/01/01 11:11:46;;;;;;;34.42;22.02;;;;;;;9.26;61.88;96149.09;4965807;28;20445;-72
2023/01/01 11:14:20;;;;;;;35.33;22.65;;;;;;;9.46;61.51;96165.31;4952869;28;20096;-72
2023/01/01 11:16:45;;;;;;;30.48;21.10;;;;;;;9.54;61.21;96176.06;4952873;28;20484;-71
2023/01/01 11:19:18;;;;;;;34.55;22.40;;;;;;;9.63;61.03;96176.38;4968247;28;20029;-72
2023/01/01 11:21:47;;;;;;;35.17;22.65;;;;;;;9.60;60.95;96157.56;4946806;28;20123;-71
2023/01/01 11:24:18;;;;;;;44.72;27.83;;;;;;;9.75;60.41;96167.06;4952313;28;20027;-71
2023/01/01 11:26:43;;;;;;;37.60;23.48;;;;;;;9.75;60.77;96164.47;4970229;28;20031;-71
2023/01/01 11:29:15;;;;;;;35.80;23.08;;;;;;;9.82;60.76;96170.97;4954150;28;20536;-71
2023/01/01 11:31:40;;;;;;;40.40;24.55;;;;;;;9.82;60.28;96163.16;4969980;28;20031;-72
2023/01/01 11:34:25;;;;;;;37.90;25.45;;;;;;;9.85;60.08;96163.00;4927614;28;20047;-71
2023/01/01 11:36:50;;;;;;;39.42;26.15;;;;;;;9.95;60.11;96162.47;4962290;28;20031;-72